Time;durP1;ratioP1;P1;durP2;ratioP2;P2;SDS_P1;SDS_P2;PMS_P1;PMS_P2;Temp;Humidity;BMP_temperature;BMP_pressure;BME280_temperature;BME280_humidity;BME280_pressure;Samples;Min_cycle;Max_cycle;Signal;HPM_P1;HPM_P2
2022/05/14 00:01:03;;;;;;;24.58;9.82;;;11.90;99.90;;;;;;5032157;28;20049;-69
2022/05/14 00:03:31;;;;;;;13.63;8.38;;;11.90;99.90;;;;;;5032347;28;20517;-68
2022/05/14 00:06:03;;;;;;;18.25;9.57;;;11.90;99.90;;;;;;5024051;28;20053;-69
2022/05/14 00:08:31;;;;;;;17.88;9.25;;;11.90;99.90;;;;;;5020272;28;20736;-69
2022/05/14 00:13:43;;;;;;;22.05;8.95;;;11.90;99.90;;;;;;5032590;28;20049;-69
2022/05/14 00:16:10;;;;;;;20.90;8.98;;;11.80;99.90;;;;;;5049036;28;20045;-69
2022/05/14 00:18:36;;;;;;;21.70;10.68;;;11.80;99.90;;;;;;5031714;28;20040;-69
2022/05/14 00:21:02;;;;;;;27.20;9.57;;;11.80;99.90;;;;;;5031738;28;20060;-68
2022/05/14 00:23:28;;;;;;;13.75;8.98;;;11.90;99.90;;;;;;5049511;28;20520;-68
2022/05/14 00:25:54;;;;;;;17.27;8.35;;;11.80;99.90;;;;;;5031585;28;20049;-68
2022/05/14 00:28:20;;;;;;;20.42;9.02;;;11.80;99.90;;;;;;5019267;28;20053;-67
2022/05/14 00:30:46;;;;;;;16.17;9.27;;;11.80;99.90;;;;;;5035888;28;20049;-68
2022/05/14 00:33:12;;;;;;;21.63;9.30;;;11.80;99.90;;;;;;5031458;28;20085;-68
2022/05/14 00:35:39;;;;;;;26.23;9.38;;;11.80;99.90;;;;;;5047374;28;20132;-67
2022/05/14 00:38:06;;;;;;;22.95;9.73;;;11.80;99.90;;;;;;5035187;28;20053;-67
2022/05/14 00:40:35;;;;;;;20.38;8.75;;;11.70;99.90;;;;;;5030481;28;20053;-68
2022/05/14 00:43:01;;;;;;;16.50;8.35;;;11.70;99.90;;;;;;5046460;28;20056;-67
2022/05/14 00:45:30;;;;;;;31.63;10.60;;;11.70;99.90;;;;;;5050233;28;20738;-67
2022/05/14 00:47:57;;;;;;;;;;;11.60;99.90;;;;;;5032725;28;20037;-67
2022/05/14 00:50:23;;;;;;;17.73;7.93;;;11.60;99.90;;;;;;5032361;28;20105;-67
2022/05/14 00:52:50;;;;;;;17.52;8.38;;;11.60;99.90;;;;;;5026002;28;20136;-67
2022/05/14 00:55:17;;;;;;;19.00;7.60;;;11.60;99.90;;;;;;5031313;28;20044;-67
2022/05/14 00:57:45;;;;;;;23.58;8.77;;;11.60;99.90;;;;;;5043364;28;20054;-68
2022/05/14 01:00:17;;;;;;;19.40;8.88;;;11.70;99.90;;;;;;5025494;28;20051;-67
2022/05/14 01:02:43;;;;;;;14.18;7.82;;;11.70;99.90;;;;;;5030305;28;20397;-67
2022/05/14 01:05:10;;;;;;;20.77;9.43;;;11.70;99.90;;;;;;5031353;28;20053;-67
2022/05/14 01:07:38;;;;;;;16.67;9.38;;;11.70;99.90;;;;;;5030600;28;20033;-67
2022/05/14 01:10:06;;;;;;;19.63;8.00;;;11.70;99.90;;;;;;5030929;28;20053;-67
2022/05/14 01:12:34;;;;;;;16.05;8.45;;;11.70;99.90;;;;;;5029154;28;20126;-67
2022/05/14 01:15:08;;;;;;;14.98;8.98;;;11.60;99.90;;;;;;5031107;28;20528;-67
2022/05/14 01:17:34;;;;;;;18.90;8.02;;;11.70;99.90;;;;;;5048576;28;20446;-67
2022/05/14 01:19:59;;;;;;;24.40;9.38;;;11.60;99.90;;;;;;5032221;28;20170;-67
2022/05/14 01:23:04;;;;;;;18.50;9.32;;;11.70;99.90;;;;;;5030247;28;20044;-67
2022/05/14 01:28:33;;;;;;;17.20;9.25;;;11.70;99.90;;;;;;5030557;28;20065;-67
2022/05/14 01:31:01;;;;;;;24.48;9.95;;;11.70;99.90;;;;;;5022722;28;20464;-67
2022/05/14 01:33:27;;;;;;;26.00;10.45;;;11.70;99.90;;;;;;5027155;28;20569;-67
2022/05/14 01:35:53;;;;;;;21.35;9.05;;;11.70;99.90;;;;;;5028305;28;20414;-67
2022/05/14 01:38:21;;;;;;;17.10;7.82;;;11.70;99.90;;;;;;5026107;28;20140;-67
2022/05/14 01:40:47;;;;;;;23.30;9.55;;;11.80;99.90;;;;;;5028974;28;20068;-67
2022/05/14 01:43:13;;;;;;;21.52;8.63;;;11.70;99.90;;;;;;5026778;28;20451;-67
2022/05/14 01:45:39;;;;;;;23.55;10.00;;;11.70;99.90;;;;;;5027472;28;20128;-67
2022/05/14 01:48:06;;;;;;;23.48;8.70;;;11.80;99.90;;;;;;5027174;28;21483;-67
2022/05/14 01:50:32;;;;;;;19.60;9.70;;;11.70;99.90;;;;;;5027891;28;20083;-67
2022/05/14 01:52:58;;;;;;;25.50;10.55;;;11.70;99.90;;;;;;5027594;28;20158;-67
2022/05/14 01:55:23;;;;;;;18.45;9.20;;;11.80;99.90;;;;;;5027357;28;20056;-67
2022/05/14 01:57:49;;;;;;;16.70;8.45;;;11.70;99.90;;;;;;5026006;28;20183;-67
2022/05/14 02:00:16;;;;;;;19.98;9.00;;;11.70;99.90;;;;;;5028440;28;20059;-68
2022/05/14 02:02:42;;;;;;;29.83;10.15;;;11.70;99.90;;;;;;5027887;28;20049;-67
2022/05/14 02:05:08;;;;;;;21.05;9.52;;;11.70;99.90;;;;;;5026669;28;20041;-67
2022/05/14 02:07:34;;;;;;;30.40;10.10;;;11.70;99.90;;;;;;5026895;28;20045;-67
2022/05/14 02:10:00;;;;;;;24.30;10.68;;;11.70;99.90;;;;;;5018683;28;20045;-68
2022/05/14 02:12:25;;;;;;;20.35;9.13;;;11.70;99.90;;;;;;5023273;28;20148;-67
2022/05/14 02:14:51;;;;;;;20.27;8.73;;;11.60;99.90;;;;;;5027749;28;20057;-68
2022/05/14 02:17:16;;;;;;;20.05;8.82;;;11.60;99.90;;;;;;5026273;28;20046;-67
2022/05/14 02:19:42;;;;;;;27.02;9.15;;;11.60;99.90;;;;;;5027075;28;20048;-67
2022/05/14 02:22:08;;;;;;;18.70;9.80;;;11.50;99.90;;;;;;5026209;28;20095;-68
2022/05/14 02:24:36;;;;;;;18.92;8.50;;;11.50;99.90;;;;;;5016479;28;20044;-67
2022/05/14 02:27:03;;;;;;;22.52;9.98;;;11.50;99.90;;;;;;5026987;28;20678;-67
2022/05/14 02:29:50;;;;;;;18.60;9.35;;;11.50;99.90;;;;;;5023570;28;20050;-67
2022/05/14 02:32:14;;;;;;;21.83;10.13;;;11.40;99.90;;;;;;5019853;28;20523;-67
2022/05/14 02:34:40;;;;;;;15.02;8.93;;;11.40;99.90;;;;;;5026140;28;20095;-67
2022/05/14 02:37:06;;;;;;;19.25;9.35;;;11.40;99.90;;;;;;5021352;28;20423;-67
2022/05/14 02:39:31;;;;;;;22.25;10.50;;;11.30;99.90;;;;;;5026047;28;20566;-67
2022/05/14 02:41:57;;;;;;;23.98;10.13;;;11.30;99.90;;;;;;5025524;28;20045;-67
2022/05/14 02:44:22;;;;;;;25.98;9.90;;;11.30;99.90;;;;;;5027721;28;20075;-68
2022/05/14 02:46:48;;;;;;;16.50;9.18;;;11.20;99.90;;;;;;5025691;28;20052;-67
2022/05/14 02:49:14;;;;;;;35.03;10.65;;;11.20;99.90;;;;;;5026099;28;20099;-67
2022/05/14 02:51:39;;;;;;;15.80;9.52;;;11.20;99.90;;;;;;5025401;28;20103;-67
2022/05/14 02:54:05;;;;;;;16.90;9.43;;;11.10;99.90;;;;;;5024333;28;20102;-68
2022/05/14 02:56:32;;;;;;;22.67;11.00;;;11.10;99.90;;;;;;5025841;28;20056;-68
2022/05/14 02:59:09;;;;;;;23.95;11.35;;;11.10;99.90;;;;;;5008819;28;20049;-68
2022/05/14 03:01:37;;;;;;;22.70;11.95;;;11.00;99.90;;;;;;5026318;28;20052;-68
2022/05/14 03:04:04;;;;;;;23.88;11.25;;;11.00;99.90;;;;;;5028577;28;20037;-67
2022/05/14 03:06:30;;;;;;;28.88;11.43;;;11.00;99.90;;;;;;5024237;28;20234;-68
2022/05/14 03:08:56;;;;;;;21.27;9.32;;;10.90;99.90;;;;;;5022820;28;20469;-68
2022/05/14 03:11:22;;;;;;;18.20;10.35;;;10.90;99.90;;;;;;5022889;28;20049;-67
2022/05/14 03:13:51;;;;;;;21.65;11.15;;;10.90;99.90;;;;;;5021368;28;20139;-68
2022/05/14 03:16:20;;;;;;;27.15;11.85;;;10.80;99.90;;;;;;5019295;28;20041;-68
2022/05/14 03:18:46;;;;;;;28.42;11.70;;;10.80;99.90;;;;;;5027032;28;20049;-68
2022/05/14 03:21:12;;;;;;;21.60;10.45;;;10.80;99.90;;;;;;5024060;28;20479;-68
2022/05/14 03:23:37;;;;;;;25.77;10.65;;;10.80;99.90;;;;;;5014182;28;20454;-68
2022/05/14 03:26:03;;;;;;;16.25;9.85;;;10.70;99.90;;;;;;5026876;28;20068;-68
2022/05/14 03:28:28;;;;;;;16.75;9.90;;;10.70;99.90;;;;;;5027364;28;20107;-68
2022/05/14 03:30:54;;;;;;;26.38;9.60;;;10.70;99.90;;;;;;5014069;28;20125;-68
2022/05/14 03:33:20;;;;;;;21.23;9.13;;;10.70;99.90;;;;;;5029107;28;20500;-68
2022/05/14 03:35:46;;;;;;;19.38;9.70;;;10.70;99.90;;;;;;5028791;28;20052;-68
2022/05/14 03:38:11;;;;;;;23.38;10.43;;;10.60;99.90;;;;;;5028514;28;20126;-68
2022/05/14 03:40:37;;;;;;;20.20;10.80;;;10.60;99.90;;;;;;5029993;28;20049;-68
2022/05/14 03:43:03;;;;;;;21.42;10.52;;;10.50;99.90;;;;;;5029225;28;20041;-67
2022/05/14 03:45:29;;;;;;;16.02;10.15;;;10.50;99.90;;;;;;5047330;28;20049;-67
2022/05/14 03:47:54;;;;;;;22.17;10.43;;;10.50;99.90;;;;;;5029300;28;20040;-67
2022/05/14 03:50:20;;;;;;;24.63;11.95;;;10.50;99.90;;;;;;5046485;28;20075;-67
2022/05/14 03:52:46;;;;;;;25.45;12.95;;;10.50;99.90;;;;;;5043535;28;20041;-68
2022/05/14 03:55:12;;;;;;;28.23;12.38;;;10.40;99.90;;;;;;5026728;28;20414;-68
2022/05/14 03:57:38;;;;;;;19.10;10.57;;;10.40;99.90;;;;;;5040204;28;20048;-68
2022/05/14 04:00:08;;;;;;;18.58;11.45;;;10.40;99.90;;;;;;5029319;28;20462;-68
2022/05/14 04:02:34;;;;;;;26.05;14.02;;;10.40;99.90;;;;;;5028596;28;20140;-68
2022/05/14 04:05:00;;;;;;;24.30;12.20;;;10.40;99.90;;;;;;5045977;28;20580;-68
2022/05/14 04:07:25;;;;;;;29.80;13.00;;;10.40;99.90;;;;;;5029274;28;20080;-68
2022/05/14 04:09:51;;;;;;;24.63;12.05;;;10.40;99.90;;;;;;5029188;28;20441;-68
2022/05/14 04:12:17;;;;;;;34.20;12.75;;;10.40;99.90;;;;;;5028678;28;20838;-68
2022/05/14 04:14:43;;;;;;;24.63;11.73;;;10.40;99.90;;;;;;5026129;28;20107;-67
2022/05/14 04:17:09;;;;;;;31.95;12.38;;;10.50;99.90;;;;;;5025153;28;20041;-68
2022/05/14 04:19:34;;;;;;;32.20;13.45;;;10.50;99.90;;;;;;5027454;28;20064;-68
2022/05/14 04:22:00;;;;;;;32.63;13.40;;;10.60;99.90;;;;;;5029174;28;20541;-68
2022/05/14 04:24:27;;;;;;;41.47;14.93;;;10.60;99.90;;;;;;5028587;28;20037;-68
2022/05/14 04:26:53;;;;;;;25.88;13.57;;;10.70;99.90;;;;;;5046270;28;20118;-68
2022/05/14 04:29:20;;;;;;;26.92;13.55;;;10.70;99.90;;;;;;5028780;28;20405;-68
2022/05/14 04:31:46;;;;;;;26.95;12.80;;;10.70;99.90;;;;;;5046773;28;20512;-68
2022/05/14 04:34:11;;;;;;;36.42;15.52;;;10.70;99.90;;;;;;5023995;28;20150;-68
2022/05/14 04:36:37;;;;;;;37.88;14.82;;;10.70;99.90;;;;;;5026511;28;20052;-68
2022/05/14 04:39:03;;;;;;;33.38;15.65;;;10.70;99.90;;;;;;5026973;28;20095;-68
2022/05/14 04:41:30;;;;;;;31.02;14.70;;;10.70;99.90;;;;;;5029454;28;20049;-68
2022/05/14 04:43:58;;;;;;;41.58;14.82;;;10.70;99.90;;;;;;5029911;28;20061;-68
2022/05/14 04:46:23;;;;;;;30.10;14.57;;;10.80;99.90;;;;;;5028926;28;20449;-68
2022/05/14 04:48:49;;;;;;;29.20;13.40;;;10.80;99.90;;;;;;5028686;28;20053;-68
2022/05/14 04:51:15;;;;;;;27.27;13.93;;;10.80;99.90;;;;;;5029809;28;20037;-68
2022/05/14 04:53:41;;;;;;;32.63;15.40;;;10.80;99.90;;;;;;5029100;28;20152;-68
2022/05/14 04:56:06;;;;;;;30.30;15.00;;;10.80;99.90;;;;;;5030261;28;20403;-68
2022/05/14 04:58:32;;;;;;;38.17;15.30;;;10.80;99.90;;;;;;5028912;28;20406;-68
2022/05/14 05:00:58;;;;;;;35.80;16.25;;;10.80;99.90;;;;;;5028520;28;20180;-68
2022/05/14 05:03:24;;;;;;;49.97;15.88;;;10.80;99.90;;;;;;5029656;28;20049;-68
2022/05/14 05:05:56;;;;;;;34.85;16.45;;;10.80;99.90;;;;;;5027729;28;20125;-68
2022/05/14 05:08:24;;;;;;;34.20;15.15;;;10.90;99.90;;;;;;5027886;28;20418;-68
2022/05/14 05:10:50;;;;;;;27.20;14.93;;;11.00;99.90;;;;;;5028668;28;20060;-68
2022/05/14 05:13:19;;;;;;;36.28;15.65;;;11.00;99.90;;;;;;5028550;28;20102;-68
2022/05/14 05:15:45;;;;;;;33.28;17.58;;;11.10;99.90;;;;;;5029574;28;20106;-68
2022/05/14 05:18:12;;;;;;;36.55;15.63;;;11.20;99.90;;;;;;5028467;28;20053;-68
2022/05/14 05:20:40;;;;;;;39.53;16.63;;;11.30;99.90;;;;;;5028230;28;20057;-68
2022/05/14 05:23:07;;;;;;;47.05;17.98;;;11.30;99.90;;;;;;5029366;28;20046;-68
2022/05/14 05:25:32;;;;;;;43.45;18.65;;;11.40;99.90;;;;;;5028178;28;20124;-68
2022/05/14 05:27:58;;;;;;;46.55;17.40;;;11.40;99.90;;;;;;5028681;28;20132;-68
2022/05/14 05:30:24;;;;;;;55.30;18.27;;;11.40;99.90;;;;;;5027799;28;20408;-68
2022/05/14 05:32:51;;;;;;;39.85;17.67;;;11.50;99.90;;;;;;5028354;28;20126;-69
2022/05/14 05:35:17;;;;;;;45.65;18.05;;;11.60;99.90;;;;;;5031823;28;20096;-68
2022/05/14 05:37:42;;;;;;;31.38;15.88;;;11.60;99.90;;;;;;5031211;28;20057;-68
2022/05/14 05:40:09;;;;;;;36.85;17.80;;;11.70;99.90;;;;;;5031310;28;20813;-68
2022/05/14 05:42:34;;;;;;;53.63;19.60;;;11.70;99.90;;;;;;5030528;28;20051;-68
2022/05/14 05:45:00;;;;;;;31.83;18.23;;;11.80;99.90;;;;;;5049086;28;20044;-68
2022/05/14 05:47:26;;;;;;;40.53;18.42;;;11.90;99.90;;;;;;5030644;28;20049;-68
2022/05/14 05:49:52;;;;;;;46.70;19.17;;;12.00;99.90;;;;;;5048693;28;20041;-68
2022/05/14 05:52:17;;;;;;;36.63;17.58;;;12.00;99.90;;;;;;5047563;28;20056;-68
2022/05/14 05:57:35;;;;;;;44.25;19.13;;;12.20;99.90;;;;;;4995829;28;20131;-68
2022/05/14 06:00:04;;;;;;;55.38;20.83;;;12.30;99.90;;;;;;5048305;28;20084;-68
2022/05/14 06:02:29;;;;;;;39.47;18.92;;;12.30;99.90;;;;;;5025155;28;20088;-68
2022/05/14 06:04:55;;;;;;;41.60;18.67;;;12.40;99.90;;;;;;5041710;28;20119;-68
2022/05/14 06:07:21;;;;;;;52.03;18.42;;;12.50;99.90;;;;;;5023123;28;20044;-69
2022/05/14 06:09:47;;;;;;;40.72;18.02;;;12.60;99.90;;;;;;5023084;28;20041;-67
2022/05/14 06:12:13;;;;;;;57.35;17.50;;;12.60;99.90;;;;;;5043685;28;20045;-68
2022/05/14 06:14:39;;;;;;;40.70;17.70;;;12.60;99.90;;;;;;5027913;28;20141;-68
2022/05/14 06:17:05;;;;;;;49.92;16.70;;;12.70;99.90;;;;;;5043141;28;20049;-68
2022/05/14 06:19:31;;;;;;;42.30;17.20;;;12.80;99.90;;;;;;5042906;28;20053;-68
2022/05/14 06:21:56;;;;;;;56.03;17.38;;;12.80;99.90;;;;;;5043062;28;20059;-68
2022/05/14 06:24:22;;;;;;;49.38;15.52;;;12.90;99.90;;;;;;5024597;28;20572;-68
2022/05/14 06:26:48;;;;;;;38.40;16.35;;;13.00;99.90;;;;;;5024598;28;20087;-68
2022/05/14 06:29:13;;;;;;;47.72;15.18;;;13.10;99.90;;;;;;5025039;28;20125;-69
2022/05/14 06:31:39;;;;;;;33.35;13.23;;;13.20;99.90;;;;;;5027377;28;20728;-69
2022/05/14 06:34:05;;;;;;;43.58;13.35;;;13.30;99.90;;;;;;5029459;28;20509;-69
2022/05/14 06:36:30;;;;;;;29.80;12.18;;;13.40;99.90;;;;;;5029585;28;20049;-70
2022/05/14 06:38:56;;;;;;;42.40;13.68;;;13.50;99.90;;;;;;5029345;28;20405;-69
2022/05/14 06:41:22;;;;;;;35.47;12.88;;;13.70;99.90;;;;;;5029834;28;20064;-69
2022/05/14 06:43:48;;;;;;;36.90;12.50;;;13.90;99.90;;;;;;5024167;28;20046;-69
2022/05/14 06:46:14;;;;;;;41.05;11.93;;;14.20;99.90;;;;;;5021989;28;20390;-70
2022/05/14 06:48:39;;;;;;;28.52;10.32;;;14.50;99.90;;;;;;5029378;28;20120;-70
2022/05/14 06:51:09;;;;;;;28.75;10.55;;;14.70;99.90;;;;;;5043596;28;20041;-69
2022/05/14 06:53:37;;;;;;;32.08;10.13;;;15.00;99.90;;;;;;5042981;28;20145;-69
2022/05/14 06:56:03;;;;;;;;;;;15.20;99.90;;;;;;5029426;28;20049;-70
2022/05/14 06:58:34;;;;;;;32.38;10.80;;;15.50;99.90;;;;;;5029424;28;19920;-69
2022/05/14 07:01:00;;;;;;;42.15;11.88;;;15.80;99.90;;;;;;5028402;28;21235;-69
2022/05/14 07:08:56;;;;;;;30.75;9.98;;;16.70;99.90;;;;;;5029924;28;20140;-68
2022/05/14 07:11:22;;;;;;;33.25;10.10;;;17.00;99.90;;;;;;5029534;28;20125;-68
2022/05/14 07:13:47;;;;;;;24.70;8.70;;;17.20;99.90;;;;;;5047469;28;20043;-70
2022/05/14 07:16:13;;;;;;;26.10;8.93;;;17.60;99.90;;;;;;5047586;28;20410;-70
2022/05/14 07:18:39;;;;;;;30.25;9.55;;;17.80;99.90;;;;;;5028724;28;20148;-70
2022/05/14 07:21:04;;;;;;;27.52;9.18;;;18.10;99.90;;;;;;5047524;28;20049;-70
2022/05/14 07:23:30;;;;;;;22.73;8.43;;;18.30;99.90;;;;;;5028583;28;20049;-70
2022/05/14 07:26:07;;;;;;;27.65;8.57;;;18.40;99.90;;;;;;5046838;28;20061;-70
2022/05/14 07:28:35;;;;;;;29.42;9.07;;;18.50;99.90;;;;;;5036804;28;20033;-70
2022/05/14 07:31:03;;;;;;;22.00;8.35;;;18.60;99.90;;;;;;5012859;28;20052;-70
2022/05/14 07:33:29;;;;;;;27.73;9.75;;;18.70;99.90;;;;;;5029259;28;20409;-71
2022/05/14 07:36:00;;;;;;;22.45;8.23;;;18.90;99.90;;;;;;5046984;28;20056;-71
2022/05/14 07:38:26;;;;;;;20.10;7.70;;;19.10;99.90;;;;;;5028252;28;20049;-70
2022/05/14 07:40:52;;;;;;;34.30;9.13;;;19.40;99.90;;;;;;5047515;28;20055;-70
2022/05/14 07:43:24;;;;;;;27.92;8.25;;;19.50;99.90;;;;;;5029342;28;20036;-71
2022/05/14 07:45:55;;;;;;;19.85;7.53;;;19.80;99.90;;;;;;5042787;28;20398;-71
2022/05/14 07:48:27;;;;;;;32.10;8.88;;;19.90;99.90;;;;;;5028915;28;20054;-71
2022/05/14 07:50:54;;;;;;;24.80;7.22;;;20.10;99.90;;;;;;5045785;28;20076;-70
2022/05/14 07:53:20;;;;;;;38.53;8.30;;;20.30;99.90;;;;;;5036639;28;20037;-70
2022/05/14 07:55:46;;;;;;;23.38;8.52;;;20.50;99.90;;;;;;5023348;28;20045;-71
2022/05/14 07:58:12;;;;;;;37.50;8.30;;;20.50;99.90;;;;;;5026823;28;20767;-70
2022/05/14 08:00:39;;;;;;;12.57;7.00;;;20.60;98.20;;;;;;5027212;28;20044;-71
2022/05/14 08:03:05;;;;;;;21.65;6.85;;;20.90;95.10;;;;;;5045668;28;20044;-70
2022/05/14 08:05:31;;;;;;;28.35;7.57;;;21.10;93.80;;;;;;5027788;28;20056;-71
2022/05/14 08:07:57;;;;;;;23.05;7.38;;;21.20;87.80;;;;;;5027208;28;20510;-71
2022/05/14 08:10:24;;;;;;;24.15;8.05;;;21.40;87.90;;;;;;5027771;28;20056;-71
2022/05/14 08:12:53;;;;;;;31.17;7.75;;;21.60;84.70;;;;;;5031735;28;20055;-71
2022/05/14 08:15:21;;;;;;;15.45;7.75;;;21.70;81.20;;;;;;5032183;28;20049;-71
2022/05/14 08:17:48;;;;;;;26.63;9.23;;;21.80;78.10;;;;;;5031772;28;20413;-70
2022/05/14 08:20:15;;;;;;;20.08;8.35;;;21.80;72.30;;;;;;5029174;28;20048;-70
2022/05/14 08:25:26;;;;;;;20.10;7.07;;;22.00;72.00;;;;;;5029367;28;20049;-70
2022/05/14 08:27:52;;;;;;;21.98;7.97;;;22.20;68.70;;;;;;5048042;28;20119;-70
2022/05/14 08:30:24;;;;;;;23.42;7.57;;;22.00;68.90;;;;;;5030828;28;20106;-70
2022/05/14 08:32:50;;;;;;;31.38;10.27;;;22.10;67.10;;;;;;5025998;28;20045;-71
2022/05/14 08:35:18;;;;;;;32.47;7.45;;;21.80;69.50;;;;;;5031258;28;20518;-70
2022/05/14 08:37:44;;;;;;;27.55;8.43;;;21.60;70.50;;;;;;5030577;28;20041;-70
2022/05/14 08:40:36;;;;;;;21.08;7.65;;;21.90;70.10;;;;;;5031172;28;20107;-70
2022/05/14 08:43:06;;;;;;;21.75;7.70;;;21.90;60.40;;;;;;5027415;28;20525;-70
2022/05/14 08:45:36;;;;;;;32.22;8.40;;;21.90;66.30;;;;;;5047314;28;20041;-71
2022/05/14 08:48:24;;;;;;;36.70;10.50;;;21.90;65.60;;;;;;5031005;28;20091;-71
2022/05/14 08:51:18;;;;;;;25.95;9.02;;;21.60;63.50;;;;;;5030926;28;20052;-71
2022/05/14 08:53:47;;;;;;;29.20;9.02;;;21.70;65.30;;;;;;5022629;28;20242;-71
2022/05/14 08:56:32;;;;;;;33.47;8.30;;;22.00;65.00;;;;;;5048768;28;20052;-71
2022/05/14 08:59:33;;;;;;;33.30;9.45;;;22.20;61.70;;;;;;5049051;28;20102;-71
2022/05/14 09:02:11;;;;;;;23.88;7.32;;;22.50;62.20;;;;;;5043740;28;20048;-71
2022/05/14 09:04:38;;;;;;;17.77;7.60;;;22.60;61.20;;;;;;5044378;28;20053;-70
2022/05/14 09:07:04;;;;;;;32.65;7.53;;;22.30;63.20;;;;;;5029873;28;20949;-70
2022/05/14 09:09:31;;;;;;;25.02;8.10;;;22.20;62.30;;;;;;5048865;28;20136;-70
2022/05/14 09:12:03;;;;;;;22.80;7.28;;;21.70;62.70;;;;;;5029636;28;20098;-70
2022/05/14 09:14:39;;;;;;;31.23;8.82;;;21.60;63.80;;;;;;5048321;28;20113;-71
2022/05/14 09:17:06;;;;;;;26.27;8.73;;;21.60;62.00;;;;;;5047354;28;20406;-70
2022/05/14 09:19:35;;;;;;;19.77;8.48;;;21.50;63.10;;;;;;5025447;28;20449;-70
2022/05/14 09:22:17;;;;;;;29.38;9.05;;;21.60;64.50;;;;;;5046160;28;20057;-70
2022/05/14 09:24:51;;;;;;;21.98;8.73;;;21.70;63.00;;;;;;5044854;28;20048;-70
2022/05/14 09:27:37;;;;;;;27.55;7.90;;;21.40;64.10;;;;;;5029976;28;20052;-70
2022/05/14 09:30:07;;;;;;;20.30;9.07;;;21.40;62.10;;;;;;5046365;28;20130;-70
2022/05/14 09:32:42;;;;;;;34.50;9.77;;;21.20;64.20;;;;;;5030686;28;20060;-71
2022/05/14 09:35:29;;;;;;;33.80;9.60;;;21.10;62.50;;;;;;5025110;28;20052;-70
2022/05/14 09:38:07;;;;;;;33.95;9.70;;;21.00;63.90;;;;;;5030360;28;20131;-70
2022/05/14 09:40:33;;;;;;;27.23;7.95;;;21.20;65.30;;;;;;5031563;28;20486;-71
2022/05/14 09:43:08;;;;;;;37.65;10.18;;;21.60;65.60;;;;;;5043292;28;20410;-71
2022/05/14 09:45:37;;;;;;;24.35;8.23;;;21.70;62.70;;;;;;5031850;28;20207;-71
2022/05/14 09:48:18;;;;;;;26.13;8.57;;;21.70;63.00;;;;;;5048616;28;20387;-71
2022/05/14 09:50:47;;;;;;;23.92;8.07;;;21.70;59.50;;;;;;5030140;28;20522;-71
2022/05/14 09:53:23;;;;;;;24.17;6.78;;;22.00;60.10;;;;;;5030878;28;20052;-71
2022/05/14 09:56:06;;;;;;;34.58;10.77;;;22.00;59.30;;;;;;5048217;28;20098;-71
2022/05/14 09:58:48;;;;;;;24.52;7.95;;;21.50;59.50;;;;;;5031160;28;20567;-71
2022/05/14 10:01:21;;;;;;;23.58;8.18;;;21.40;60.00;;;;;;5027891;28;20051;-71
2022/05/14 10:04:20;;;;;;;24.33;7.80;;;21.30;60.90;;;;;;5022884;28;20494;-70
2022/05/14 10:06:54;;;;;;;23.48;8.73;;;21.60;62.30;;;;;;5026930;28;20045;-71
2022/05/14 10:09:32;;;;;;;24.67;8.38;;;22.00;62.50;;;;;;5040555;28;20059;-71
2022/05/14 10:12:15;;;;;;;26.60;7.22;;;22.00;60.40;;;;;;5029992;28;20767;-71
2022/05/14 10:15:10;;;;;;;30.52;9.13;;;21.90;58.90;;;;;;5030413;28;20045;-71
2022/05/14 10:17:36;;;;;;;23.98;7.75;;;21.70;58.20;;;;;;5029267;28;20051;-71
2022/05/14 10:20:20;;;;;;;28.63;8.70;;;21.60;58.60;;;;;;5029829;28;20041;-71
2022/05/14 10:29:03;;;;;;;26.88;9.23;;;21.80;59.10;;;;;;5025870;28;20114;-71
2022/05/14 10:32:02;;;;;;;24.20;7.78;;;22.10;56.40;;;;;;5026907;28;20057;-70
2022/05/14 10:34:57;;;;;;;23.77;7.93;;;22.20;55.50;;;;;;5036697;28;20056;-71
2022/05/14 10:37:45;;;;;;;21.70;8.25;;;22.00;56.10;;;;;;5028357;28;20081;-71
2022/05/14 10:40:31;;;;;;;26.30;8.50;;;21.90;57.50;;;;;;5029926;28;20083;-71
2022/05/14 10:43:11;;;;;;;29.30;8.30;;;21.90;56.90;;;;;;5047500;28;20141;-71
2022/05/14 10:45:44;;;;;;;28.95;8.90;;;21.70;58.50;;;;;;5022676;28;20430;-71
2022/05/14 10:48:35;;;;;;;23.88;8.20;;;21.60;58.30;;;;;;5047485;28;20060;-71
2022/05/14 10:51:05;;;;;;;36.67;9.00;;;21.90;58.00;;;;;;5047841;28;20045;-71
2022/05/14 10:53:32;;;;;;;24.17;7.65;;;21.90;58.80;;;;;;5025921;28;20505;-71
2022/05/14 10:56:03;;;;;;;27.17;8.57;;;22.00;59.10;;;;;;5047803;28;20045;-71
2022/05/14 10:58:45;;;;;;;29.23;9.35;;;21.90;57.90;;;;;;5045581;28;20488;-71
2022/05/14 11:01:28;;;;;;;30.77;8.10;;;21.70;57.40;;;;;;5038512;28;20042;-71
2022/05/14 11:04:09;;;;;;;24.20;8.95;;;21.50;56.70;;;;;;5028949;28;20094;-71
2022/05/14 11:06:53;;;;;;;31.60;10.60;;;21.50;58.70;;;;;;5024472;28;20049;-71
2022/05/14 11:09:22;;;;;;;22.85;8.65;;;21.90;58.50;;;;;;5024959;28;20056;-71
2022/05/14 11:11:55;;;;;;;28.13;8.82;;;22.20;58.10;;;;;;5028329;28;20076;-71
2022/05/14 11:14:23;;;;;;;28.35;9.65;;;22.30;56.90;;;;;;5029722;28;20048;-71
2022/05/14 11:16:52;;;;;;;24.92;8.63;;;22.30;57.50;;;;;;5047686;28;20040;-71
2022/05/14 11:19:32;;;;;;;25.73;8.63;;;22.30;56.90;;;;;;5047618;28;20555;-70
2022/05/14 11:22:01;;;;;;;26.88;7.38;;;22.20;56.10;;;;;;5027583;28;20057;-71
2022/05/14 11:24:35;;;;;;;39.10;9.75;;;22.10;56.50;;;;;;5030627;28;20501;-71
2022/05/14 11:27:01;;;;;;;29.83;8.85;;;22.20;56.70;;;;;;5029539;28;20044;-71
2022/05/14 11:29:33;;;;;;;20.95;8.50;;;22.10;55.90;;;;;;5030563;28;20049;-71
2022/05/14 11:32:08;;;;;;;26.25;9.50;;;22.00;56.90;;;;;;5029348;28;20080;-71
2022/05/14 11:34:35;;;;;;;23.38;8.23;;;22.30;57.00;;;;;;5029592;28;20348;-71
2022/05/14 11:37:04;;;;;;;29.20;9.20;;;22.60;55.90;;;;;;5047141;28;20055;-71
2022/05/14 11:39:36;;;;;;;35.83;9.38;;;22.70;54.80;;;;;;5047725;28;20048;-71
2022/05/14 11:42:27;;;;;;;39.65;9.73;;;22.60;54.40;;;;;;5047341;28;20045;-71
2022/05/14 11:45:06;;;;;;;21.27;7.65;;;22.50;52.70;;;;;;5036883;28;20518;-70
2022/05/14 11:47:46;;;;;;;29.90;9.23;;;22.40;54.90;;;;;;5030771;28;20057;-71
2022/05/14 11:50:14;;;;;;;27.38;9.20;;;22.60;53.40;;;;;;5032970;28;20049;-70
2022/05/14 11:52:53;;;;;;;30.20;8.70;;;22.60;54.50;;;;;;5042392;28;20057;-70
2022/05/14 11:55:27;;;;;;;37.40;9.32;;;22.60;54.40;;;;;;5033397;28;20498;-71
2022/05/14 11:58:35;;;;;;;20.10;8.30;;;22.80;54.30;;;;;;5050439;28;20183;-71
2022/05/14 12:01:07;;;;;;;22.17;9.27;;;22.60;54.00;;;;;;5011053;28;20057;-71
2022/05/14 12:03:40;;;;;;;20.27;9.00;;;22.50;54.70;;;;;;5034251;28;20049;-70
2022/05/14 12:06:06;;;;;;;20.65;8.35;;;22.50;54.80;;;;;;5050089;28;20460;-71
2022/05/14 12:08:47;;;;;;;34.67;9.85;;;22.40;55.40;;;;;;5047698;28;20128;-72
2022/05/14 12:11:24;;;;;;;21.80;8.73;;;22.50;55.60;;;;;;5044511;28;20133;-73
2022/05/14 12:14:01;;;;;;;24.73;8.77;;;22.40;55.50;;;;;;5029139;28;20128;-72
2022/05/14 12:16:35;;;;;;;;;;;22.30;55.20;;;;;;5033278;28;20161;-72
2022/05/14 12:19:03;;;;;;;19.25;8.25;;;22.20;54.60;;;;;;5033037;28;19925;-65
2022/05/14 12:21:29;;;;;;;26.55;8.63;;;22.00;55.70;;;;;;5033241;28;20049;-73
2022/05/14 12:23:55;;;;;;;27.02;8.40;;;22.00;56.60;;;;;;5028831;28;20839;-73
2022/05/14 12:26:30;;;;;;;31.13;9.15;;;22.20;56.30;;;;;;5029475;28;20055;-72
2022/05/14 12:29:11;;;;;;;28.02;9.77;;;22.30;56.40;;;;;;5029653;28;20059;-71
2022/05/14 12:34:21;;;;;;;27.67;9.10;;;22.30;55.80;;;;;;5024589;28;20160;-73
2022/05/14 12:36:50;;;;;;;26.65;10.63;;;22.30;55.80;;;;;;5028439;28;20187;-73
2022/05/14 12:39:27;;;;;;;27.67;10.30;;;22.20;55.00;;;;;;5028382;28;20045;-72
2022/05/14 12:41:58;;;;;;;22.53;9.07;;;22.40;56.20;;;;;;5028978;28;20045;-73
2022/05/14 12:44:31;;;;;;;24.55;8.77;;;22.10;54.30;;;;;;5028497;28;20714;-72
2022/05/14 12:47:01;;;;;;;30.58;9.43;;;22.00;54.60;;;;;;5015198;28;20053;-72
2022/05/14 12:49:31;;;;;;;30.73;9.93;;;22.10;54.60;;;;;;5028321;28;20054;-72
2022/05/14 12:52:09;;;;;;;36.83;10.25;;;22.00;54.80;;;;;;5017160;28;20113;-71
2022/05/14 12:54:40;;;;;;;40.45;10.35;;;22.00;54.50;;;;;;5027189;28;20049;-71
2022/05/14 12:57:10;;;;;;;22.15;8.20;;;22.00;55.10;;;;;;5026747;28;20052;-70
2022/05/14 12:59:36;;;;;;;28.13;10.00;;;22.10;55.00;;;;;;5027674;28;20049;-71
2022/05/14 13:02:29;;;;;;;25.92;8.75;;;22.20;55.10;;;;;;5027628;28;20620;-71
2022/05/14 13:05:11;;;;;;;25.60;9.93;;;22.10;54.00;;;;;;5014412;28;20049;-70
2022/05/14 13:07:57;;;;;;;38.75;9.38;;;22.10;54.30;;;;;;5029249;28;20115;-70
2022/05/14 13:10:28;;;;;;;26.52;8.20;;;22.00;53.90;;;;;;5022953;28;20075;-70
2022/05/14 13:12:57;;;;;;;32.85;9.90;;;21.90;54.50;;;;;;5024775;28;20049;-71